Enon, Ohio
Current Conditions -  °F | °C
As of 9:56 AM on Thursday 30 Oct 2014 (Local Time) from KSGH Reporting Station
Clear Clear  
Wind Chill: 45°   Ceiling: Unl
Heat Index: 45°   Visibility: 8mi
Dew Point: 37°   Wind: 3mph
Humidity: 73%   Direction: 190°S
Pressure: 30.17"   Gusts: NA
Location:  39.88°N, 83.94°W
Report Text: KSGH 301356Z AUTO 19003KT 8SM CLR 07/03 A3017 RMK AO2 T00720027 SLP222
Loading
Personal Weather Stations






























Interactive Weather Map
Tropical Storm Tracking
New forecast layout! Learn more

10-Day Weather Forecast

Advertisements
Track Severe Weather on mobile